createdAt,value
2023-01-09T00:01:51.990Z,102056.15
2023-01-09T00:04:19.262Z,102050.29
2023-01-09T00:06:54.110Z,102047.46
2023-01-09T00:09:22.739Z,102040.76
2023-01-09T00:11:50.402Z,102042.50
2023-01-09T00:14:19.177Z,102038.05
2023-01-09T00:16:47.805Z,102038.92
2023-01-09T00:19:16.636Z,102040.52
2023-01-09T00:21:44.111Z,102040.55
2023-01-09T00:24:11.203Z,102037.55
2023-01-09T00:26:38.463Z,102038.76
2023-01-09T00:29:06.111Z,102034.14
2023-01-09T00:31:33.287Z,102036.06
2023-01-09T00:34:01.621Z,102036.22
2023-01-09T00:36:31.159Z,102031.95
2023-01-09T00:38:58.563Z,102037.92
2023-01-09T00:41:37.642Z,102037.90
2023-01-09T00:44:12.366Z,102035.06
2023-01-09T00:46:41.588Z,102033.80
2023-01-09T00:49:09.026Z,102028.30
2023-01-09T00:51:36.234Z,102027.92
2023-01-09T00:54:03.867Z,102016.60
2023-01-09T00:56:31.769Z,102017.29
2023-01-09T00:58:58.988Z,102015.65
2023-01-09T01:01:26.462Z,102011.92
2023-01-09T01:03:53.805Z,102007.35
2023-01-09T01:06:39.680Z,102005.58
2023-01-09T01:09:07.004Z,101997.63
2023-01-09T01:11:34.669Z,101991.23
2023-01-09T01:14:01.751Z,101987.50
2023-01-09T01:16:29.031Z,101980.60
2023-01-09T01:18:56.245Z,101976.67
2023-01-09T01:21:24.202Z,101969.92
2023-01-09T01:23:51.336Z,101971.14
2023-01-09T01:26:19.115Z,101966.36
2023-01-09T01:28:46.412Z,101957.65
2023-01-09T01:31:18.345Z,101955.66
2023-01-09T01:33:45.688Z,101942.35
2023-01-09T01:36:12.954Z,101946.92
2023-01-09T01:38:40.094Z,101941.11
2023-01-09T01:41:07.313Z,101932.28
2023-01-09T01:43:55.772Z,101932.67
2023-01-09T01:46:23.024Z,101928.63
2023-01-09T01:48:53.369Z,101919.81
2023-01-09T01:51:20.496Z,101918.70
2023-01-09T01:53:52.972Z,101915.29
2023-01-09T01:56:32.952Z,101913.30
2023-01-09T01:59:10.642Z,101914.14
2023-01-09T02:01:41.219Z,101903.45
2023-01-09T02:04:08.792Z,101900.61
2023-01-09T02:06:36.154Z,101898.45
2023-01-09T02:09:04.882Z,101894.50
2023-01-09T02:11:31.977Z,101890.34
2023-01-09T02:13:59.330Z,101887.98
2023-01-09T02:16:48.465Z,101885.80
2023-01-09T02:19:24.939Z,101883.34
2023-01-09T02:22:33.335Z,101883.14
2023-01-09T02:25:32.314Z,101885.79
2023-01-09T02:28:21.352Z,101882.73
2023-01-09T02:31:07.407Z,101876.52
2023-01-09T02:33:56.647Z,101872.42
2023-01-09T02:36:45.958Z,101870.08
2023-01-09T02:39:22.104Z,101869.33
2023-01-09T02:41:58.976Z,101869.11
2023-01-09T02:44:27.755Z,101868.02
2023-01-09T02:47:02.261Z,101871.39
2023-01-09T02:49:29.486Z,101867.33
2023-01-09T02:52:08.686Z,101864.67
2023-01-09T02:54:38.592Z,101862.02
2023-01-09T02:57:05.691Z,101861.66
2023-01-09T03:00:14.020Z,101863.05
2023-01-09T03:02:52.726Z,101869.38
2023-01-09T03:05:23.919Z,101864.53
2023-01-09T03:07:58.992Z,101869.58
2023-01-09T03:10:35.294Z,101868.26
2023-01-09T03:13:03.512Z,101865.55
2023-01-09T03:15:33.888Z,101864.05
2023-01-09T03:18:01.149Z,101869.48
2023-01-09T03:20:29.298Z,101864.15
2023-01-09T03:23:02.366Z,101860.06
2023-01-09T03:25:30.219Z,101853.50
2023-01-09T03:28:08.499Z,101853.28
2023-01-09T03:30:36.379Z,101851.81
2023-01-09T03:33:03.633Z,101850.68
2023-01-09T03:35:30.730Z,101849.90
2023-01-09T03:37:59.161Z,101850.25
2023-01-09T03:40:29.123Z,101846.52
2023-01-09T03:42:56.189Z,101844.74
2023-01-09T03:45:23.434Z,101847.91
2023-01-09T03:47:52.892Z,101843.23
2023-01-09T03:50:20.153Z,101843.46
2023-01-09T03:52:47.339Z,101844.91
2023-01-09T03:55:15.729Z,101845.38
2023-01-09T03:57:43.321Z,101846.86
2023-01-09T04:00:11.099Z,101845.90
2023-01-09T04:02:41.251Z,101848.83
2023-01-09T04:05:08.725Z,101849.60
2023-01-09T04:07:36.473Z,101844.74
2023-01-09T04:10:03.895Z,101849.77
2023-01-09T04:12:30.973Z,101853.60
2023-01-09T04:14:58.139Z,101848.75
2023-01-09T04:17:25.327Z,101853.80
2023-01-09T04:19:52.718Z,101849.12
2023-01-09T04:22:19.814Z,101846.41
2023-01-09T04:24:47.013Z,101845.65
2023-01-09T04:27:15.217Z,101845.98
2023-01-09T04:29:43.305Z,101844.16
2023-01-09T04:32:10.535Z,101838.81
2023-01-09T04:34:37.650Z,101839.89
2023-01-09T04:37:04.935Z,101836.48
2023-01-09T04:39:32.108Z,101839.56
2023-01-09T04:41:59.434Z,101838.35
2023-01-09T04:44:26.687Z,101839.22
2023-01-09T04:46:54.355Z,101841.67
2023-01-09T04:49:21.636Z,101839.63
2023-01-09T04:51:49.720Z,101835.66
2023-01-09T04:54:17.344Z,101829.31
2023-01-09T04:56:44.571Z,101830.63
2023-01-09T04:59:11.715Z,101831.04
2023-01-09T05:01:38.926Z,101824.91
2023-01-09T05:04:06.443Z,101826.09
2023-01-09T05:06:34.433Z,101822.63
2023-01-09T05:09:01.652Z,101824.13
2023-01-09T05:11:29.036Z,101819.77
2023-01-09T05:13:56.246Z,101819.01
2023-01-09T05:16:23.421Z,101817.42
2023-01-09T05:18:51.838Z,101814.91
2023-01-09T05:21:18.932Z,101814.15
2023-01-09T05:23:46.403Z,101817.30
2023-01-09T05:26:13.714Z,101817.44
2023-01-09T05:28:40.834Z,101818.30
2023-01-09T05:31:07.919Z,101815.27
2023-01-09T05:33:35.007Z,101811.72
2023-01-09T05:36:02.270Z,101812.61
2023-01-09T05:38:29.521Z,101812.59
2023-01-09T05:40:56.744Z,101816.26
2023-01-09T05:43:23.864Z,101819.20
2023-01-09T05:45:51.011Z,101822.87
2023-01-09T05:48:18.222Z,101823.88
2023-01-09T05:50:45.343Z,101820.64
2023-01-09T05:53:12.433Z,101825.20
2023-01-09T05:55:39.564Z,101830.67
2023-01-09T05:58:06.713Z,101831.70
2023-01-09T06:00:33.898Z,101829.53
2023-01-09T06:03:01.850Z,101834.84
2023-01-09T06:05:28.887Z,101837.15
2023-01-09T06:07:56.139Z,101836.02
2023-01-09T06:10:23.265Z,101837.71
2023-01-09T06:12:51.051Z,101837.51
2023-01-09T06:15:18.434Z,101845.11
2023-01-09T06:17:45.530Z,101845.67
2023-01-09T06:20:13.848Z,101845.35
2023-01-09T06:22:42.258Z,101845.85
2023-01-09T06:25:10.036Z,101849.72
2023-01-09T06:27:37.238Z,101847.55
2023-01-09T06:30:06.630Z,101845.79
2023-01-09T06:32:35.525Z,101850.41
2023-01-09T06:35:04.248Z,101849.15
2023-01-09T06:37:33.569Z,101849.27
2023-01-09T06:40:01.408Z,101851.75
2023-01-09T06:42:31.480Z,101852.42
2023-01-09T06:44:58.900Z,101849.88
2023-01-09T06:47:26.195Z,101853.16
2023-01-09T06:49:54.474Z,101856.06
2023-01-09T06:52:21.702Z,101856.34
2023-01-09T06:54:58.002Z,101852.41
2023-01-09T06:57:27.694Z,101852.73
2023-01-09T06:59:55.006Z,101847.88
2023-01-09T07:02:22.702Z,101847.17
2023-01-09T07:04:50.158Z,101852.22
2023-01-09T07:07:18.535Z,101852.05
2023-01-09T07:09:47.099Z,101851.75
2023-01-09T07:12:16.028Z,101854.09
2023-01-09T07:14:43.757Z,101848.03
2023-01-09T07:17:13.170Z,101849.79
2023-01-09T07:19:40.951Z,101851.55
2023-01-09T07:22:09.298Z,101852.05
2023-01-09T07:24:38.016Z,101847.92
2023-01-09T07:27:05.587Z,101847.00
2023-01-09T07:29:34.689Z,101847.99
2023-01-09T07:32:03.192Z,101845.56
2023-01-09T07:34:31.105Z,101843.64
2023-01-09T07:36:58.262Z,101845.89
2023-01-09T07:39:25.947Z,101842.65
2023-01-09T07:41:55.953Z,101844.27
2023-01-09T07:44:23.810Z,101837.77
2023-01-09T07:46:54.199Z,101838.52
2023-01-09T07:49:21.786Z,101844.54
2023-01-09T07:51:51.845Z,101844.54
2023-01-09T07:54:23.879Z,101849.16
2023-01-09T07:56:51.214Z,101841.86
2023-01-09T07:59:18.576Z,101846.76
2023-01-09T08:01:49.656Z,101845.10
2023-01-09T08:04:18.110Z,101842.05
2023-01-09T08:06:45.717Z,101841.64
2023-01-09T08:09:14.038Z,101844.78
2023-01-09T08:11:42.109Z,101844.34
2023-01-09T08:14:09.336Z,101847.33
2023-01-09T08:16:36.908Z,101843.52
2023-01-09T08:19:04.106Z,101844.41
2023-01-09T08:21:31.348Z,101840.86
2023-01-09T08:23:58.578Z,101840.77
2023-01-09T08:26:26.463Z,101841.60
2023-01-09T08:28:53.712Z,101843.73
2023-01-09T08:31:21.013Z,101837.46
2023-01-09T08:33:48.520Z,101834.06
2023-01-09T08:36:15.730Z,101835.30
2023-01-09T08:38:43.073Z,101836.73
2023-01-09T08:41:28.963Z,101833.67
2023-01-09T08:44:14.556Z,101828.76
2023-01-09T08:47:00.259Z,101828.31
2023-01-09T08:49:27.849Z,101824.85
2023-01-09T08:51:55.029Z,101818.40
2023-01-09T08:54:22.157Z,101817.83
2023-01-09T08:56:49.370Z,101822.39
2023-01-09T08:59:16.789Z,101819.13
2023-01-09T09:01:44.135Z,101815.27
2023-01-09T09:04:11.411Z,101816.14
2023-01-09T09:06:38.753Z,101812.52
2023-01-09T09:09:07.002Z,101804.94
2023-01-09T09:11:35.017Z,101805.80
2023-01-09T09:14:23.906Z,101799.91
2023-01-09T09:16:53.399Z,101799.09
2023-01-09T09:19:20.670Z,101802.22
2023-01-09T09:21:47.978Z,101803.23
2023-01-09T09:24:15.129Z,101799.56
2023-01-09T09:26:44.437Z,101800.99
2023-01-09T09:29:12.731Z,101803.61
2023-01-09T09:31:39.976Z,101801.92
2023-01-09T09:34:07.381Z,101803.50
2023-01-09T09:36:34.783Z,101804.42
2023-01-09T09:39:07.552Z,101799.48
2023-01-09T09:42:14.545Z,101797.88
2023-01-09T09:45:04.150Z,101791.73
2023-01-09T09:47:43.804Z,101790.42
2023-01-09T09:50:29.383Z,101789.56
2023-01-09T13:27:35.910Z,101684.61
2023-01-09T13:30:09.886Z,101687.05
2023-01-09T13:32:59.593Z,101689.45
2023-01-09T13:35:26.792Z,101685.83
2023-01-09T13:37:54.076Z,101685.66
2023-01-09T13:40:21.714Z,101683.33
2023-01-09T13:43:11.111Z,101685.91
2023-01-09T13:45:38.756Z,101681.73
2023-01-09T13:48:10.059Z,101679.50
2023-01-09T13:57:15.320Z,101686.56
2023-01-09T13:59:44.437Z,101687.88
2023-01-09T14:02:33.842Z,101686.60
2023-01-09T14:05:01.666Z,101684.41
2023-01-09T14:07:30.266Z,101683.63
2023-01-09T14:10:04.531Z,101681.00
2023-01-09T14:12:38.376Z,101682.48
2023-01-09T14:15:05.880Z,101675.92
2023-01-09T14:17:36.877Z,101682.55
2023-01-09T14:20:17.752Z,101682.90
2023-01-09T14:22:55.884Z,101681.17
2023-01-09T14:25:32.145Z,101683.38
2023-01-09T14:27:59.734Z,101682.02
2023-01-09T14:30:27.945Z,101680.81
2023-01-09T14:33:01.752Z,101682.59
2023-01-09T14:35:54.298Z,101685.23
2023-01-09T14:38:42.296Z,101692.36
2023-01-09T14:42:07.830Z,101691.84
2023-01-09T14:45:02.311Z,101686.70
2023-01-09T14:48:10.629Z,101680.42
2023-01-09T14:50:46.509Z,101679.11
2023-01-09T14:53:29.106Z,101671.30
2023-01-09T14:55:58.016Z,101674.98
2023-01-09T14:58:36.153Z,101674.54
2023-01-09T15:01:15.036Z,101672.96
2023-01-09T15:03:49.471Z,101670.78
2023-01-09T15:06:23.101Z,101673.40
2023-01-09T15:09:00.514Z,101674.73
2023-01-09T15:11:27.873Z,101672.96
2023-01-09T15:13:56.817Z,101676.98
2023-01-09T15:16:24.559Z,101667.20
2023-01-09T15:19:00.065Z,101667.23
2023-01-09T15:21:30.452Z,101666.26
2023-01-09T15:24:14.520Z,101670.42
2023-01-09T15:26:44.154Z,101663.33
2023-01-09T15:29:17.080Z,101660.22
2023-01-09T15:31:44.898Z,101655.15
2023-01-09T15:34:17.964Z,101651.48
2023-01-09T15:36:48.689Z,101648.13
2023-01-09T15:39:35.915Z,101653.42
2023-01-09T15:42:23.923Z,101654.09
2023-01-09T15:44:51.693Z,101649.46
2023-01-09T15:47:23.520Z,101648.77
2023-01-09T15:49:50.750Z,101646.02
2023-01-09T15:52:18.019Z,101647.13
2023-01-09T15:54:46.514Z,101645.11
2023-01-09T15:57:26.572Z,101641.70
2023-01-09T15:59:55.801Z,101635.23
2023-01-09T16:02:41.987Z,101630.39
2023-01-09T16:05:13.638Z,101629.22
2023-01-09T16:07:47.687Z,101625.09
2023-01-09T16:10:30.141Z,101624.34
2023-01-09T16:12:58.911Z,101621.52
2023-01-09T16:15:26.869Z,101621.29
2023-01-09T16:18:06.214Z,101624.77
2023-01-09T16:20:33.516Z,101624.83
2023-01-09T16:23:02.566Z,101624.89
2023-01-09T16:25:33.671Z,101625.23
2023-01-09T16:28:21.678Z,101623.30
2023-01-09T16:30:53.611Z,101613.93
2023-01-09T16:33:22.626Z,101615.31
2023-01-09T16:35:50.317Z,101614.85
2023-01-09T16:38:18.974Z,101614.21
2023-01-09T16:41:18.334Z,101611.79
2023-01-09T16:43:45.826Z,101611.86
2023-01-09T16:46:16.759Z,101603.27
2023-01-09T16:48:44.274Z,101604.00
2023-01-09T16:51:21.432Z,101593.63
2023-01-09T16:53:49.487Z,101594.41
2023-01-09T16:56:18.469Z,101602.92
2023-01-09T16:58:45.951Z,101606.17
2023-01-09T17:01:14.339Z,101604.76
2023-01-09T17:03:43.797Z,101603.33
2023-01-09T17:06:27.088Z,101603.34
2023-01-09T17:08:54.418Z,101595.59
2023-01-09T17:11:32.593Z,101592.66
2023-01-09T17:14:03.625Z,101589.94
2023-01-09T17:16:31.321Z,101597.11
2023-01-09T17:18:58.786Z,101589.36
2023-01-09T17:21:28.423Z,101593.67
2023-01-09T17:24:14.178Z,101588.45
2023-01-09T17:27:03.999Z,101590.09
2023-01-09T17:29:33.705Z,101590.51
2023-01-09T17:32:00.919Z,101596.39
2023-01-09T17:34:27.927Z,101590.42
2023-01-09T17:36:56.943Z,101584.27
2023-01-09T17:39:32.361Z,101587.39
2023-01-09T17:42:01.605Z,101580.45
2023-01-09T17:44:29.191Z,101585.02
2023-01-09T17:46:57.716Z,101585.64
2023-01-09T17:49:24.843Z,101582.14
2023-01-09T17:51:52.752Z,101577.34
2023-01-09T17:54:21.348Z,101577.52
2023-01-09T17:56:50.317Z,101580.02
2023-01-09T17:59:17.890Z,101574.25
2023-01-09T18:01:45.321Z,101573.23
2023-01-09T18:04:15.081Z,101574.83
2023-01-09T18:06:44.980Z,101580.00
2023-01-09T18:09:17.541Z,101579.34
2023-01-09T18:11:45.105Z,101578.53
2023-01-09T18:14:15.191Z,101573.98
2023-01-09T18:16:43.957Z,101581.11
2023-01-09T18:19:11.144Z,101579.20
2023-01-09T18:21:38.419Z,101582.77
2023-01-09T18:24:08.869Z,101583.90
2023-01-09T18:26:36.587Z,101582.54
2023-01-09T18:29:03.961Z,101579.09
2023-01-09T18:31:32.159Z,101580.70
2023-01-09T18:34:01.819Z,101579.43
2023-01-09T18:36:29.388Z,101577.27
2023-01-09T18:38:57.531Z,101580.63
2023-01-09T18:41:24.991Z,101585.90
2023-01-09T18:43:54.395Z,101585.33
2023-01-09T18:46:24.224Z,101572.75
2023-01-09T18:48:54.725Z,101571.02
2023-01-09T18:51:22.469Z,101567.89
